Time;durP1;ratioP1;P1;durP2;ratioP2;P2;SDS_P1;SDS_P2;PMS_P1;PMS_P2;Temp;Humidity;BMP_temperature;BMP_pressure;BME280_temperature;BME280_humidity;BME280_pressure;Samples;Min_cycle;Max_cycle;Signal;HPM_P1;HPM_P2
2022/03/04 00:02:06;;;;;;;3.33;3.13;;;18.10;37.60;;;;;;5028826;28;20227;-75
2022/03/04 00:04:37;;;;;;;2.70;2.50;;;18.10;37.60;;;;;;5023500;28;20223;-75
2022/03/04 00:07:03;;;;;;;2.80;2.60;;;18.10;37.60;;;;;;5018382;28;20428;-75
2022/03/04 00:09:28;;;;;;;2.93;2.73;;;18.10;37.60;;;;;;5023946;28;20902;-75
2022/03/04 00:11:54;;;;;;;3.87;3.67;;;18.10;37.60;;;;;;5021545;28;20472;-76
2022/03/04 00:14:20;;;;;;;3.00;2.80;;;18.10;37.60;;;;;;5024886;28;20719;-76
2022/03/04 00:16:45;;;;;;;3.13;2.93;;;18.10;37.60;;;;;;5028481;28;20222;-75
2022/03/04 00:19:11;;;;;;;2.50;2.40;;;18.10;37.60;;;;;;5022411;28;20277;-75
2022/03/04 00:21:38;;;;;;;2.93;2.73;;;18.10;37.60;;;;;;5024495;28;20224;-75
2022/03/04 00:24:05;;;;;;;3.03;2.83;;;18.10;37.60;;;;;;5024207;28;20223;-75
2022/03/04 00:26:31;;;;;;;2.83;2.67;;;18.10;37.60;;;;;;5024680;28;20469;-75
2022/03/04 00:28:57;;;;;;;3.13;2.93;;;18.10;37.60;;;;;;5024977;28;20435;-75
2022/03/04 00:31:23;;;;;;;2.87;2.60;;;18.10;37.60;;;;;;5026888;28;20732;-75
2022/03/04 00:33:49;;;;;;;3.17;2.97;;;18.10;37.60;;;;;;5021213;28;20810;-76
2022/03/04 00:36:15;;;;;;;3.10;2.90;;;18.10;37.60;;;;;;5020820;28;20453;-76
2022/03/04 00:38:41;;;;;;;2.53;2.33;;;18.10;37.60;;;;;;5024516;28;20216;-76
2022/03/04 00:41:06;;;;;;;2.90;2.70;;;18.10;37.60;;;;;;5021721;28;20253;-76
2022/03/04 00:43:32;;;;;;;3.43;3.13;;;18.10;37.60;;;;;;5025280;28;20330;-76
2022/03/04 00:45:57;;;;;;;2.93;2.83;;;18.10;37.60;;;;;;5020897;28;20222;-76
2022/03/04 00:48:23;;;;;;;2.80;2.60;;;18.10;37.60;;;;;;5021622;28;20755;-76
2022/03/04 00:50:49;;;;;;;2.70;2.60;;;18.10;37.60;;;;;;5021375;28;20219;-76
2022/03/04 00:53:14;;;;;;;2.93;2.73;;;18.10;38.30;;;;;;5021770;28;20224;-76
2022/03/04 00:55:40;;;;;;;3.00;2.80;;;18.10;37.60;;;;;;5024205;28;20234;-76
2022/03/04 00:58:06;;;;;;;4.00;3.63;;;18.10;37.60;;;;;;5021483;28;20234;-76
2022/03/04 01:00:34;;;;;;;2.83;2.73;;;18.10;37.60;;;;;;5018702;28;20224;-76
2022/03/04 01:03:00;;;;;;;2.97;2.77;;;18.10;37.60;;;;;;5021424;28;20438;-75
2022/03/04 01:05:26;;;;;;;3.67;3.37;;;18.10;37.60;;;;;;5018767;28;20838;-76
2022/03/04 01:07:51;;;;;;;2.53;2.40;;;18.10;37.60;;;;;;5018378;28;20942;-76
2022/03/04 01:10:17;;;;;;;3.37;3.17;;;18.10;37.60;;;;;;5021889;28;20585;-76
2022/03/04 01:12:43;;;;;;;3.00;2.80;;;18.10;37.60;;;;;;5021099;28;20223;-76
2022/03/04 01:15:09;;;;;;;3.20;3.00;;;18.10;37.60;;;;;;5026677;28;20224;-76
2022/03/04 01:17:35;;;;;;;3.10;2.90;;;18.10;37.60;;;;;;5020103;28;20226;-76
2022/03/04 01:20:02;;;;;;;3.43;3.23;;;18.10;37.60;;;;;;5018747;28;20423;-75
2022/03/04 01:22:28;;;;;;;3.00;2.80;;;18.10;37.60;;;;;;5015534;28;20229;-76
2022/03/04 01:24:53;;;;;;;2.80;2.70;;;18.10;37.60;;;;;;5023568;28;20509;-75
2022/03/04 01:27:19;;;;;;;2.50;2.30;;;18.10;37.60;;;;;;5025420;28;20687;-76
2022/03/04 01:29:45;;;;;;;3.17;2.97;;;18.10;37.60;;;;;;5022861;28;20230;-76
2022/03/04 01:32:11;;;;;;;2.90;2.70;;;18.10;37.60;;;;;;5019064;28;20447;-76
2022/03/04 01:34:37;;;;;;;3.27;3.07;;;18.10;37.60;;;;;;5024334;28;20468;-76
2022/03/04 01:37:04;;;;;;;3.43;3.13;;;18.00;37.50;;;;;;5016986;28;20227;-75
2022/03/04 01:39:29;;;;;;;2.60;2.40;;;18.10;37.60;;;;;;5019731;28;20430;-75
2022/03/04 01:41:55;;;;;;;3.07;2.87;;;18.10;37.60;;;;;;5021458;28;20828;-76
2022/03/04 01:44:21;;;;;;;3.40;3.20;;;18.10;37.60;;;;;;5019874;28;20706;-76
2022/03/04 01:46:47;;;;;;;3.10;2.90;;;18.10;37.60;;;;;;5023250;28;20215;-76
2022/03/04 01:49:13;;;;;;;2.90;2.70;;;18.10;37.60;;;;;;5025771;28;20219;-76
2022/03/04 01:51:38;;;;;;;2.77;2.57;;;18.10;37.60;;;;;;5024479;28;20581;-76
2022/03/04 01:54:04;;;;;;;2.93;2.73;;;18.10;37.60;;;;;;5017501;28;20472;-75
2022/03/04 01:56:30;;;;;;;3.07;2.87;;;18.00;37.50;;;;;;5026048;28;20230;-76
2022/03/04 01:58:55;;;;;;;3.00;2.80;;;18.00;37.50;;;;;;5022349;28;20261;-76
2022/03/04 02:01:21;;;;;;;3.20;3.00;;;18.00;37.50;;;;;;5022081;28;20275;-76
2022/03/04 02:03:47;;;;;;;3.07;2.87;;;18.10;37.60;;;;;;5017432;28;20222;-75
2022/03/04 02:06:12;;;;;;;3.30;3.10;;;18.10;37.60;;;;;;5026433;28;20220;-76
2022/03/04 02:08:38;;;;;;;2.60;2.50;;;18.00;37.50;;;;;;5016650;28;20613;-76
2022/03/04 02:11:04;;;;;;;3.17;2.97;;;18.00;37.50;;;;;;5023209;28;20675;-76
2022/03/04 02:13:30;;;;;;;2.83;2.63;;;18.10;37.60;;;;;;5019168;28;20212;-76
2022/03/04 02:15:55;;;;;;;2.50;2.40;;;18.00;37.50;;;;;;5019583;28;20465;-76
2022/03/04 02:18:21;;;;;;;3.47;3.27;;;18.00;37.50;;;;;;5019060;28;20219;-76
2022/03/04 02:20:49;;;;;;;3.00;2.80;;;18.00;37.50;;;;;;5020109;28;20246;-76
2022/03/04 02:23:17;;;;;;;2.83;2.63;;;18.10;37.60;;;;;;5023027;28;20642;-76
2022/03/04 02:25:48;;;;;;;3.13;2.93;;;18.00;37.50;;;;;;5021398;28;20513;-76
2022/03/04 02:28:14;;;;;;;3.07;2.87;;;18.00;37.50;;;;;;5018623;28;20426;-76
2022/03/04 02:30:42;;;;;;;2.80;2.60;;;18.10;37.60;;;;;;5025640;28;20422;-76
2022/03/04 02:33:08;;;;;;;3.33;3.13;;;18.00;37.50;;;;;;5017713;28;20612;-76
2022/03/04 02:35:35;;;;;;;2.70;2.60;;;18.00;37.50;;;;;;5019458;28;21038;-76
2022/03/04 02:38:02;;;;;;;3.00;2.80;;;18.10;37.60;;;;;;5022736;28;20456;-76
2022/03/04 02:40:28;;;;;;;3.07;2.87;;;18.00;37.50;;;;;;5019175;28;20455;-75
2022/03/04 02:42:54;;;;;;;2.90;2.70;;;18.00;37.50;;;;;;5016388;28;20801;-76
2022/03/04 02:45:19;;;;;;;3.20;3.00;;;18.00;37.50;;;;;;5022203;28;20219;-76
2022/03/04 02:47:45;;;;;;;2.87;2.77;;;18.00;37.50;;;;;;5018697;28;20302;-76
2022/03/04 02:50:10;;;;;;;2.87;2.67;;;18.00;37.50;;;;;;5020354;28;20262;-75
2022/03/04 02:52:36;;;;;;;2.53;2.43;;;18.00;37.50;;;;;;5014580;28;20285;-76
2022/03/04 02:55:02;;;;;;;2.77;2.67;;;18.00;37.50;;;;;;5026925;28;20235;-76
2022/03/04 02:57:28;;;;;;;3.27;3.07;;;18.00;37.50;;;;;;5022549;28;20222;-76
2022/03/04 02:59:53;;;;;;;2.63;2.53;;;18.00;37.50;;;;;;5016313;28;20961;-76
2022/03/04 03:02:19;;;;;;;2.93;2.77;;;18.00;37.50;;;;;;5021224;28;20581;-76
2022/03/04 03:04:45;;;;;;;3.40;3.20;;;18.00;37.50;;;;;;5025516;28;20216;-76
2022/03/04 03:07:10;;;;;;;2.97;2.77;;;18.00;37.50;;;;;;5024778;28;20234;-76
2022/03/04 03:09:36;;;;;;;2.67;2.57;;;18.00;37.50;;;;;;5020560;28;20226;-76
2022/03/04 03:12:01;;;;;;;2.90;2.70;;;18.00;37.40;;;;;;5016769;28;20619;-76
2022/03/04 03:14:27;;;;;;;3.10;2.90;;;18.00;37.40;;;;;;5018558;28;20220;-76
2022/03/04 03:16:52;;;;;;;2.83;2.63;;;18.00;37.40;;;;;;5018484;28;20226;-76
2022/03/04 03:19:18;;;;;;;3.33;3.13;;;18.00;37.40;;;;;;5015336;28;20223;-76
2022/03/04 03:21:44;;;;;;;3.20;3.00;;;18.00;37.40;;;;;;5023806;28;20242;-81
2022/03/04 03:24:09;;;;;;;3.10;2.90;;;18.00;37.30;;;;;;5023844;28;20269;-80
2022/03/04 03:26:35;;;;;;;3.40;3.20;;;18.00;37.40;;;;;;5023992;28;20246;-81
2022/03/04 03:29:00;;;;;;;3.27;3.07;;;18.00;37.40;;;;;;5018769;28;20215;-81
2022/03/04 03:31:26;;;;;;;3.00;2.80;;;18.00;37.30;;;;;;5025240;28;20220;-81
2022/03/04 03:33:51;;;;;;;3.17;2.97;;;18.00;37.40;;;;;;5021083;28;20220;-80
2022/03/04 03:36:17;;;;;;;2.87;2.77;;;18.00;37.30;;;;;;5019513;28;20664;-80
2022/03/04 03:38:43;;;;;;;2.90;2.70;;;18.00;37.30;;;;;;5027913;28;20223;-80
2022/03/04 03:41:09;;;;;;;3.00;2.80;;;18.00;37.30;;;;;;5026369;28;20219;-80
2022/03/04 03:43:34;;;;;;;3.13;3.00;;;18.00;37.30;;;;;;5026438;28;20228;-76
2022/03/04 03:46:00;;;;;;;2.80;2.60;;;18.00;37.30;;;;;;5021564;28;20973;-76
2022/03/04 03:48:26;;;;;;;3.43;3.20;;;18.00;37.30;;;;;;5023659;28;20306;-76
2022/03/04 03:50:51;;;;;;;3.10;2.90;;;18.00;37.30;;;;;;5023060;28;20207;-76
2022/03/04 03:53:17;;;;;;;2.73;2.63;;;18.00;37.30;;;;;;5023397;28;20215;-76
2022/03/04 03:55:42;;;;;;;2.70;2.50;;;18.00;37.30;;;;;;5029443;28;20627;-75
2022/03/04 03:58:08;;;;;;;3.03;2.83;;;18.00;37.30;;;;;;5023024;28;20694;-76
2022/03/04 04:00:34;;;;;;;3.50;3.30;;;18.00;37.20;;;;;;5020151;28;20215;-76
2022/03/04 04:03:00;;;;;;;2.80;2.70;;;18.00;37.20;;;;;;5026406;28;20215;-75
2022/03/04 04:05:26;;;;;;;2.80;2.60;;;18.00;37.20;;;;;;5023931;28;20469;-76
2022/03/04 04:07:52;;;;;;;3.50;3.30;;;18.00;37.30;;;;;;5020943;28;20223;-76
2022/03/04 04:10:17;;;;;;;3.17;2.97;;;18.00;37.20;;;;;;5026631;28;20218;-76
2022/03/04 04:12:43;;;;;;;3.80;3.60;;;18.00;37.30;;;;;;5020295;28;20590;-76
2022/03/04 04:15:09;;;;;;;3.07;2.87;;;18.00;37.20;;;;;;5017754;28;20235;-76
2022/03/04 04:17:35;;;;;;;2.97;2.77;;;18.00;37.20;;;;;;5021256;28;20284;-76
2022/03/04 04:20:01;;;;;;;3.20;3.00;;;18.00;37.20;;;;;;5022692;28;20211;-75
2022/03/04 04:22:26;;;;;;;2.70;2.50;;;18.00;37.20;;;;;;5023706;28;20476;-75
2022/03/04 04:24:52;;;;;;;3.17;2.97;;;18.00;37.10;;;;;;5019349;28;20476;-76
2022/03/04 04:27:18;;;;;;;3.17;2.97;;;18.00;37.20;;;;;;5020525;28;20603;-76
2022/03/04 04:29:43;;;;;;;2.83;2.70;;;18.00;37.10;;;;;;5020991;28;20230;-76
2022/03/04 04:32:09;;;;;;;3.50;3.30;;;18.00;37.10;;;;;;5020713;28;20651;-76
2022/03/04 04:34:35;;;;;;;3.17;2.97;;;18.00;37.00;;;;;;5027714;28;20239;-76
2022/03/04 04:37:01;;;;;;;3.57;3.37;;;18.00;37.00;;;;;;5020251;28;20269;-75
2022/03/04 04:39:26;;;;;;;3.10;2.90;;;18.00;37.00;;;;;;5025017;28;20923;-76
2022/03/04 04:41:52;;;;;;;3.50;3.30;;;18.00;37.00;;;;;;5017907;28;20279;-76
2022/03/04 04:44:17;;;;;;;3.10;2.90;;;18.00;36.90;;;;;;5019726;28;20244;-76
2022/03/04 04:46:43;;;;;;;2.90;2.70;;;18.00;36.90;;;;;;5020628;28;20692;-76
2022/03/04 04:49:09;;;;;;;2.90;2.70;;;18.00;37.00;;;;;;5022936;28;20277;-76
2022/03/04 04:51:35;;;;;;;3.30;3.10;;;18.00;36.90;;;;;;5027219;28;20663;-76
2022/03/04 04:54:01;;;;;;;2.83;2.70;;;18.00;36.90;;;;;;5022246;28;20543;-76
2022/03/04 04:56:27;;;;;;;3.40;3.20;;;18.00;36.90;;;;;;5021563;28;20685;-76
2022/03/04 04:58:52;;;;;;;3.07;2.87;;;18.00;36.90;;;;;;5022386;28;20453;-76
2022/03/04 05:01:18;;;;;;;3.27;3.07;;;18.00;36.90;;;;;;5020499;28;20705;-76
2022/03/04 05:03:44;;;;;;;3.03;2.90;;;18.00;36.90;;;;;;5024891;28;20219;-76
2022/03/04 05:06:10;;;;;;;3.20;3.00;;;18.00;36.90;;;;;;5025369;28;20250;-76
2022/03/04 05:08:35;;;;;;;3.30;3.10;;;18.00;36.90;;;;;;5020766;28;20247;-76
2022/03/04 05:11:01;;;;;;;3.20;2.90;;;18.00;36.80;;;;;;5022607;28;20249;-76
2022/03/04 05:13:27;;;;;;;2.93;2.73;;;18.00;36.80;;;;;;5026112;28;20215;-76
2022/03/04 05:15:52;;;;;;;3.33;3.13;;;18.00;36.80;;;;;;5024505;28;20234;-76
2022/03/04 05:18:18;;;;;;;3.13;2.93;;;18.00;36.70;;;;;;5019755;28;20678;-76
2022/03/04 05:20:44;;;;;;;3.30;3.10;;;18.00;36.70;;;;;;5019069;28;20223;-76
2022/03/04 05:23:10;;;;;;;2.90;2.70;;;18.00;36.80;;;;;;5026755;28;20265;-76
2022/03/04 05:25:36;;;;;;;3.37;3.13;;;18.00;36.70;;;;;;5020663;28;20234;-76
2022/03/04 05:28:02;;;;;;;2.97;2.77;;;18.00;36.70;;;;;;5015997;28;20499;-76
2022/03/04 05:30:27;;;;;;;3.10;2.90;;;18.00;36.60;;;;;;5023746;28;20215;-76
2022/03/04 05:32:53;;;;;;;3.40;3.20;;;18.00;36.60;;;;;;5018066;28;20589;-76
2022/03/04 05:35:19;;;;;;;3.07;2.87;;;18.00;36.60;;;;;;5025155;28;20243;-76
2022/03/04 05:37:44;;;;;;;3.23;3.03;;;18.10;36.70;;;;;;5019701;28;20686;-76
2022/03/04 05:40:10;;;;;;;2.70;2.50;;;18.10;36.60;;;;;;5013538;28;20223;-75
2022/03/04 05:42:36;;;;;;;3.40;3.20;;;18.10;36.60;;;;;;5015527;28;20794;-75
2022/03/04 05:45:03;;;;;;;3.50;3.30;;;18.10;36.40;;;;;;5025070;28;20228;-74
2022/03/04 05:47:29;;;;;;;3.20;3.00;;;18.20;36.40;;;;;;5020809;28;20419;-77
2022/03/04 05:49:55;;;;;;;3.30;3.00;;;18.20;36.30;;;;;;5023172;28;20438;-77
2022/03/04 05:52:20;;;;;;;3.37;3.17;;;18.20;36.30;;;;;;5021112;28;20246;-75
2022/03/04 05:54:46;;;;;;;2.90;2.70;;;18.20;36.20;;;;;;5014405;28;20224;-78
2022/03/04 05:57:12;;;;;;;3.37;3.17;;;18.20;36.20;;;;;;5018902;28;22121;-77
2022/03/04 05:59:37;;;;;;;3.40;3.20;;;18.20;36.20;;;;;;5022151;28;20219;-76
2022/03/04 06:02:03;;;;;;;3.00;2.80;;;18.20;36.20;;;;;;5023346;28;20454;-76
2022/03/04 06:04:29;;;;;;;3.10;2.90;;;18.20;36.10;;;;;;5020877;28;20221;-75
2022/03/04 06:06:55;;;;;;;2.90;2.80;;;18.20;36.20;;;;;;5026314;28;21039;-76
2022/03/04 06:09:21;;;;;;;3.50;3.30;;;18.20;36.20;;;;;;5016933;28;20716;-76
2022/03/04 06:11:47;;;;;;;3.10;2.90;;;18.20;36.20;;;;;;5015284;28;20317;-76
2022/03/04 06:14:12;;;;;;;3.10;2.90;;;18.20;36.20;;;;;;5019965;28;20577;-76
2022/03/04 06:16:38;;;;;;;3.03;2.83;;;18.20;36.20;;;;;;5019712;28;20227;-76
2022/03/04 06:59:02;;;;;;;3.73;3.43;;;18.20;36.20;;;;;;3159546;27;20452;-76
2022/03/04 07:01:28;;;;;;;7.47;3.30;;;18.20;36.20;;;;;;4912506;29;20791;-73
2022/03/04 07:03:53;;;;;;;4.30;3.20;;;18.20;36.20;;;;;;4908959;29;20219;-73
2022/03/04 07:06:19;;;;;;;3.33;3.13;;;18.20;36.20;;;;;;4911813;29;20251;-73
2022/03/04 07:08:45;;;;;;;3.70;3.50;;;18.20;36.20;;;;;;4910231;29;20643;-73
2022/03/04 07:11:11;;;;;;;3.30;3.10;;;18.20;36.20;;;;;;4910052;29;20512;-75
2022/03/04 07:13:36;;;;;;;3.73;3.40;;;18.20;36.20;;;;;;4906831;29;20222;-72
2022/03/04 07:16:03;;;;;;;4.70;4.33;;;18.20;36.20;;;;;;4907876;29;20270;-73
2022/03/04 07:18:31;;;;;;;4.97;3.43;;;18.20;36.20;;;;;;4905988;29;20231;-72
2022/03/04 07:21:01;;;;;;;4.50;3.23;;;18.20;36.20;;;;;;4907398;29;21473;-73
2022/03/04 07:23:27;;;;;;;3.57;3.37;;;18.20;36.20;;;;;;4904408;29;20901;-73
2022/03/04 07:25:53;;;;;;;3.53;3.33;;;18.20;36.20;;;;;;4910937;29;20428;-72
2022/03/04 07:28:19;;;;;;;3.50;3.30;;;18.20;36.20;;;;;;4909048;29;20457;-72
2022/03/04 07:30:44;;;;;;;4.70;3.13;;;18.20;36.20;;;;;;4908462;29;20227;-73
2022/03/04 07:33:10;;;;;;;4.30;3.73;;;18.20;36.20;;;;;;4911461;29;20231;-74
2022/03/04 07:35:39;;;;;;;3.80;3.40;;;18.20;36.20;;;;;;4907039;29;20236;-75
2022/03/04 07:38:05;;;;;;;3.30;3.10;;;18.20;36.10;;;;;;4911228;29;20227;-73
2022/03/04 07:40:30;;;;;;;3.60;3.30;;;18.20;36.10;;;;;;4889356;29;20465;-74
2022/03/04 07:42:58;;;;;;;8.03;3.50;;;18.20;36.10;;;;;;4907156;29;20442;-74
2022/03/04 07:45:24;;;;;;;3.73;3.53;;;18.30;36.20;;;;;;4908868;29;20848;-74
2022/03/04 07:47:50;;;;;;;3.63;3.33;;;18.20;36.10;;;;;;4907002;29;20974;-76
2022/03/04 07:50:17;;;;;;;3.17;2.87;;;18.20;36.10;;;;;;4907805;29;20466;-74
2022/03/04 07:52:43;;;;;;;3.47;3.27;;;18.20;36.10;;;;;;4912797;29;21055;-75
2022/03/04 07:55:11;;;;;;;5.40;2.97;;;18.20;36.10;;;;;;4910369;29;20806;-74
2022/03/04 07:57:37;;;;;;;3.27;2.97;;;18.20;36.10;;;;;;4907210;29;20438;-74
2022/03/04 08:00:10;;;;;;;4.10;3.70;;;18.20;36.10;;;;;;4900948;29;20492;-75
2022/03/04 08:02:36;;;;;;;4.30;3.60;;;18.20;36.20;;;;;;4907998;29;20696;-76
2022/03/04 08:05:02;;;;;;;6.67;3.60;;;18.20;36.20;;;;;;4895973;29;20433;-75
2022/03/04 08:07:27;;;;;;;4.43;3.10;;;18.20;36.20;;;;;;4913867;29;20527;-75
2022/03/04 08:09:53;;;;;;;3.70;3.07;;;18.20;36.20;;;;;;4916527;29;20721;-75
2022/03/04 08:12:19;;;;;;;4.07;3.77;;;18.30;36.20;;;;;;4899472;29;20211;-76
2022/03/04 08:14:45;;;;;;;3.23;3.03;;;18.20;36.20;;;;;;4894143;29;20239;-75
2022/03/04 08:17:10;;;;;;;3.60;3.30;;;18.20;36.20;;;;;;4908609;29;20469;-76
2022/03/04 08:19:39;;;;;;;3.67;3.37;;;18.20;36.20;;;;;;4909247;29;20227;-75
2022/03/04 08:22:05;;;;;;;3.20;3.00;;;18.20;36.20;;;;;;4892044;29;20258;-76
2022/03/04 08:24:31;;;;;;;3.10;2.80;;;18.20;36.20;;;;;;4909429;29;21469;-75
2022/03/04 08:26:57;;;;;;;3.30;3.10;;;18.20;36.20;;;;;;4913727;29;20529;-75
2022/03/04 08:29:23;;;;;;;4.03;3.27;;;18.20;36.20;;;;;;4894213;29;20559;-75
2022/03/04 08:31:48;;;;;;;3.40;3.20;;;18.30;36.30;;;;;;4912949;29;20267;-77
2022/03/04 08:34:15;;;;;;;2.93;2.70;;;18.20;36.20;;;;;;4911223;29;20225;-76
2022/03/04 08:36:40;;;;;;;3.43;3.10;;;18.20;36.20;;;;;;4909558;29;20220;-75
2022/03/04 08:39:06;;;;;;;2.90;2.70;;;18.20;36.20;;;;;;4904264;29;20436;-75
2022/03/04 08:41:35;;;;;;;2.87;2.67;;;18.20;36.20;;;;;;4907897;29;20762;-74
2022/03/04 08:44:02;;;;;;;3.80;3.60;;;18.20;36.20;;;;;;4907010;29;20290;-75
2022/03/04 08:46:28;;;;;;;3.20;2.90;;;18.20;36.20;;;;;;4913029;29;20428;-75
2022/03/04 08:48:54;;;;;;;4.70;2.93;;;18.20;36.20;;;;;;4908229;29;20466;-75
2022/03/04 08:51:24;;;;;;;3.00;2.80;;;18.20;36.30;;;;;;4910543;29;20448;-75
2022/03/04 08:53:54;;;;;;;3.20;3.00;;;18.20;36.20;;;;;;4908832;29;20224;-75
2022/03/04 08:56:19;;;;;;;5.40;3.13;;;18.20;36.20;;;;;;4908399;29;20469;-75
2022/03/04 08:58:45;;;;;;;3.13;2.83;;;18.20;36.30;;;;;;4895212;29;20501;-75
2022/03/04 09:01:11;;;;;;;2.83;2.63;;;18.30;36.30;;;;;;4911162;29;20334;-76
2022/03/04 09:03:36;;;;;;;3.10;2.90;;;18.20;36.30;;;;;;4914017;29;20670;-75
2022/03/04 09:06:02;;;;;;;3.40;2.90;;;18.20;36.30;;;;;;4909123;29;20231;-75
2022/03/04 09:08:28;;;;;;;3.33;3.03;;;18.20;36.30;;;;;;4910121;29;20220;-76
2022/03/04 09:10:53;;;;;;;3.30;3.10;;;18.20;36.30;;;;;;4908148;29;20216;-75
2022/03/04 09:13:19;;;;;;;3.10;2.90;;;18.20;36.30;;;;;;4907820;29;20334;-75
2022/03/04 09:15:45;;;;;;;3.17;2.97;;;18.20;36.30;;;;;;4892871;29;20235;-75
2022/03/04 09:18:11;;;;;;;2.97;2.77;;;18.20;36.50;;;;;;4904376;29;20242;-75
2022/03/04 09:20:36;;;;;;;4.90;2.93;;;18.20;36.40;;;;;;4910300;29;20290;-75
2022/03/04 09:23:02;;;;;;;3.20;3.00;;;18.20;36.30;;;;;;4898379;29;20227;-75
2022/03/04 09:25:28;;;;;;;3.60;3.30;;;18.20;36.40;;;;;;4910605;29;20223;-75
2022/03/04 09:27:53;;;;;;;3.00;2.80;;;18.20;36.40;;;;;;4904484;29;20247;-75
2022/03/04 09:30:19;;;;;;;3.60;3.40;;;18.20;36.40;;;;;;4894084;29;20227;-75
2022/03/04 09:32:45;;;;;;;3.50;3.30;;;18.20;36.40;;;;;;4907076;29;22082;-76
2022/03/04 09:35:11;;;;;;;3.00;2.80;;;18.20;36.40;;;;;;4907710;29;20715;-75
2022/03/04 09:37:36;;;;;;;2.97;2.77;;;18.20;36.40;;;;;;4902973;29;20503;-73
2022/03/04 09:40:07;;;;;;;3.20;3.00;;;18.20;36.40;;;;;;4895846;29;20227;-74
2022/03/04 09:42:33;;;;;;;3.10;2.90;;;18.20;36.40;;;;;;4894659;29;20223;-74
2022/03/04 09:44:59;;;;;;;3.40;3.20;;;18.20;36.40;;;;;;4891075;29;20517;-75
2022/03/04 09:47:24;;;;;;;3.13;2.83;;;18.20;36.40;;;;;;4895920;29;20314;-75
2022/03/04 09:49:53;;;;;;;2.80;2.60;;;18.20;36.40;;;;;;4907709;29;21035;-73
2022/03/04 09:52:19;;;;;;;3.37;3.17;;;18.20;37.20;;;;;;4898888;29;20234;-74
2022/03/04 09:54:48;;;;;;;3.40;3.10;;;18.20;36.30;;;;;;4908082;29;20434;-74
2022/03/04 09:57:14;;;;;;;3.30;3.10;;;18.30;36.40;;;;;;4905309;29;20418;-76
2022/03/04 09:59:39;;;;;;;2.87;2.67;;;18.30;36.50;;;;;;4905465;29;20446;-75
2022/03/04 10:02:05;;;;;;;3.77;3.30;;;18.30;36.50;;;;;;4907299;29;20611;-75
2022/03/04 10:04:33;;;;;;;3.60;3.13;;;18.30;36.50;;;;;;4906976;29;20635;-75
2022/03/04 10:07:11;;;;;;;3.23;3.00;;;18.30;36.50;;;;;;4884602;29;20219;-75
2022/03/04 12:45:09;;;;;;;4.00;3.70;;;18.70;36.80;;;;;;4888860;29;20464;-59
2022/03/04 12:47:36;;;;;;;3.93;3.20;;;18.70;36.70;;;;;;4923409;28;20452;-59
2022/03/04 12:50:03;;;;;;;5.30;3.30;;;18.70;36.80;;;;;;4926563;28;20554;-57
2022/03/04 12:52:29;;;;;;;6.70;3.73;;;18.70;36.80;;;;;;4928687;28;20456;-56
2022/03/04 12:55:02;;;;;;;7.10;3.20;;;18.70;36.80;;;;;;4929938;28;20476;-57
2022/03/04 12:57:28;;;;;;;5.40;3.70;;;18.70;36.90;;;;;;4929881;28;20568;-57
2022/03/04 12:59:54;;;;;;;3.90;3.50;;;18.70;36.90;;;;;;4922678;28;20991;-57
2022/03/04 13:02:19;;;;;;;4.77;3.40;;;18.70;37.00;;;;;;4922235;28;20622;-57
2022/03/04 13:04:59;;;;;;;3.20;2.90;;;18.60;37.00;;;;;;4928395;28;20302;-57
2022/03/04 13:07:25;;;;;;;4.03;3.73;;;18.60;36.90;;;;;;4926066;28;20223;-58
2022/03/04 13:09:51;;;;;;;4.03;3.73;;;18.60;37.00;;;;;;4926053;28;20463;-58
2022/03/04 13:12:24;;;;;;;3.43;3.13;;;18.60;37.10;;;;;;4924250;28;20469;-61
2022/03/04 13:14:51;;;;;;;4.70;4.30;;;18.60;37.10;;;;;;4921179;28;20491;-58
2022/03/04 13:17:17;;;;;;;6.73;3.60;;;18.60;37.10;;;;;;4927831;28;20458;-58
2022/03/04 13:19:43;;;;;;;3.30;3.10;;;18.60;37.10;;;;;;4924470;28;20430;-57
2022/03/04 13:22:14;;;;;;;3.67;3.33;;;18.60;37.10;;;;;;4927449;28;20462;-59
2022/03/04 13:24:42;;;;;;;3.80;3.47;;;18.60;37.10;;;;;;4925335;28;20455;-58
2022/03/04 13:27:16;;;;;;;3.63;3.33;;;18.60;37.20;;;;;;4924572;28;20455;-58
2022/03/04 13:29:48;;;;;;;4.00;3.70;;;18.60;37.10;;;;;;4928395;28;20448;-57
2022/03/04 13:32:18;;;;;;;4.20;3.87;;;18.60;37.10;;;;;;4928753;28;20431;-57
2022/03/04 13:34:47;;;;;;;5.23;3.43;;;18.60;37.10;;;;;;4927532;28;20474;-57
2022/03/04 13:37:17;;;;;;;4.43;4.03;;;18.60;37.20;;;;;;4926140;29;20431;-57
2022/03/04 13:39:58;;;;;;;3.87;3.30;;;18.60;37.10;;;;;;4920437;29;20569;-58
2022/03/04 13:42:29;;;;;;;3.40;3.20;;;18.60;37.10;;;;;;4923141;28;20519;-58
2022/03/04 13:45:01;;;;;;;3.33;3.03;;;18.50;37.10;;;;;;4926467;28;20550;-57
2022/03/04 13:47:28;;;;;;;3.80;3.60;;;18.50;37.10;;;;;;4924743;28;20463;-57
2022/03/04 13:49:53;;;;;;;3.27;3.03;;;18.50;37.10;;;;;;4924408;28;20486;-57
2022/03/04 13:52:19;;;;;;;3.23;2.93;;;18.50;37.10;;;;;;4925683;29;20453;-57
2022/03/04 13:55:05;;;;;;;3.23;3.03;;;18.50;37.10;;;;;;4919118;28;20239;-57
2022/03/04 13:57:34;;;;;;;4.77;3.40;;;18.50;37.00;;;;;;4923764;28;20225;-57
2022/03/04 14:00:10;;;;;;;3.43;3.07;;;18.50;37.00;;;;;;4931415;28;20505;-57
2022/03/04 14:02:45;;;;;;;3.20;3.00;;;18.50;37.00;;;;;;4924653;28;20439;-58
2022/03/04 14:05:33;;;;;;;3.53;3.23;;;18.50;37.00;;;;;;4918511;28;20451;-57
2022/03/04 14:08:07;;;;;;;3.80;3.50;;;18.50;37.00;;;;;;4921897;28;20469;-58
2022/03/04 14:10:34;;;;;;;3.20;3.00;;;18.50;37.10;;;;;;4921112;28;20430;-58
2022/03/04 14:13:03;;;;;;;4.03;3.47;;;18.50;37.00;;;;;;4920425;28;20436;-58
2022/03/04 14:15:29;;;;;;;3.63;3.33;;;18.50;37.00;;;;;;4927715;28;20511;-57
2022/03/04 14:17:58;;;;;;;4.00;3.63;;;18.50;37.00;;;;;;4924476;28;20469;-57
2022/03/04 14:20:26;;;;;;;3.30;3.10;;;18.50;37.00;;;;;;4924617;28;20948;-58
2022/03/04 14:22:51;;;;;;;3.27;3.07;;;18.50;37.00;;;;;;4919544;28;20433;-62
2022/03/04 14:25:18;;;;;;;2.97;2.70;;;18.50;37.00;;;;;;4924568;28;20845;-58
2022/03/04 14:27:48;;;;;;;3.10;2.90;;;18.50;37.00;;;;;;4923732;28;20294;-58
2022/03/04 14:30:17;;;;;;;3.23;2.90;;;18.50;37.00;;;;;;4919628;28;20428;-58
2022/03/04 14:32:44;;;;;;;3.73;3.53;;;18.50;37.00;;;;;;4923346;28;20461;-59
2022/03/04 14:35:11;;;;;;;3.07;2.70;;;18.50;37.00;;;;;;4920835;29;20992;-57
2022/03/04 14:37:37;;;;;;;3.03;2.83;;;18.50;36.90;;;;;;4928993;28;20427;-58
2022/03/04 14:40:06;;;;;;;3.30;3.10;;;18.50;36.90;;;;;;4920746;28;20439;-58
2022/03/04 14:42:32;;;;;;;3.70;3.30;;;18.50;36.90;;;;;;4921834;28;20957;-58
2022/03/04 14:44:58;;;;;;;3.77;2.80;;;18.50;36.90;;;;;;4921591;28;20761;-58
2022/03/04 14:47:24;;;;;;;3.23;3.03;;;18.50;36.90;;;;;;4920589;28;20435;-57
2022/03/04 14:49:49;;;;;;;3.50;3.20;;;18.50;36.90;;;;;;4923779;28;20218;-58
2022/03/04 14:52:15;;;;;;;2.67;2.57;;;18.50;37.00;;;;;;4921959;28;20224;-58
2022/03/04 14:54:41;;;;;;;3.60;3.30;;;18.50;37.00;;;;;;4924820;28;20249;-59
2022/03/04 14:57:11;;;;;;;34.50;3.70;;;18.50;37.00;;;;;;4920453;28;20287;-59
2022/03/04 14:59:40;;;;;;;3.67;3.37;;;18.50;36.90;;;;;;4925407;28;20234;-59
2022/03/04 15:02:07;;;;;;;3.67;3.43;;;18.50;36.80;;;;;;4922960;28;20479;-58
2022/03/04 15:04:33;;;;;;;3.30;2.97;;;18.60;36.90;;;;;;4922828;28;20492;-58
2022/03/04 15:06:59;;;;;;;9.00;3.70;;;18.60;36.70;;;;;;4921320;28;20433;-58
2022/03/04 15:09:25;;;;;;;3.50;3.20;;;18.60;36.70;;;;;;4924173;28;20907;-59
2022/03/04 15:11:50;;;;;;;3.07;2.87;;;18.60;36.60;;;;;;4920059;29;20215;-58
2022/03/04 15:14:16;;;;;;;3.17;2.97;;;18.60;36.50;;;;;;4924015;28;20219;-59
2022/03/04 15:16:41;;;;;;;4.57;3.27;;;18.60;36.50;;;;;;4927587;28;21014;-60
2022/03/04 15:19:08;;;;;;;3.63;3.43;;;18.70;37.30;;;;;;4925370;28;20752;-61
2022/03/04 15:21:33;;;;;;;5.60;3.90;;;18.70;36.50;;;;;;4923241;28;20237;-59
2022/03/04 15:23:59;;;;;;;2.97;2.77;;;18.70;36.50;;;;;;4927026;28;20564;-59
2022/03/04 15:26:25;;;;;;;2.90;2.70;;;18.60;36.30;;;;;;4924691;28;20217;-59
2022/03/04 15:28:50;;;;;;;3.33;3.13;;;18.70;36.30;;;;;;4924725;28;20313;-58
2022/03/04 15:31:17;;;;;;;2.83;2.63;;;18.70;36.50;;;;;;4928338;28;20994;-59
2022/03/04 15:33:43;;;;;;;2.80;2.57;;;18.60;36.30;;;;;;4926311;28;20226;-59
2022/03/04 15:36:09;;;;;;;3.23;3.03;;;18.60;36.50;;;;;;4927291;28;20478;-59
2022/03/04 15:38:35;;;;;;;3.23;3.03;;;18.60;36.60;;;;;;4930132;28;20467;-60
2022/03/04 15:41:00;;;;;;;4.33;3.93;;;18.60;36.50;;;;;;4927963;28;20230;-59
2022/03/04 15:43:27;;;;;;;3.03;2.83;;;18.60;36.40;;;;;;4926535;28;20686;-59
2022/03/04 15:45:53;;;;;;;3.37;3.17;;;18.70;36.50;;;;;;4924858;28;20314;-59
2022/03/04 15:48:19;;;;;;;2.90;2.70;;;18.60;36.30;;;;;;4928121;28;20465;-59
2022/03/04 15:50:45;;;;;;;2.57;2.40;;;18.60;36.40;;;;;;4927778;28;20459;-58
2022/03/04 15:53:10;;;;;;;2.83;2.63;;;18.60;36.50;;;;;;4929206;28;20429;-58
2022/03/04 15:55:36;;;;;;;2.87;2.67;;;18.60;36.50;;;;;;4922646;28;20239;-60
2022/03/04 15:58:01;;;;;;;3.10;2.90;;;18.60;36.50;;;;;;4929648;29;20318;-58
2022/03/04 16:11:28;;;;;;;2.73;2.53;;;18.60;36.70;;;;;;4919641;28;20931;-59